createdAt,value
2018-05-06T00:05:24.544Z,6.23
2018-05-06T00:11:19.557Z,6.6
2018-05-06T00:17:14.521Z,6.34
2018-05-06T00:23:09.593Z,6.45
2018-05-06T00:29:04.508Z,5.77
2018-05-06T00:34:59.527Z,6.67
2018-05-06T00:40:54.528Z,5.25
2018-05-06T00:46:49.538Z,6.43
2018-05-06T00:52:44.554Z,5.51
2018-05-06T00:58:39.547Z,5.78
2018-05-06T01:04:34.543Z,6.26
2018-05-06T01:10:29.562Z,6.14
2018-05-06T01:16:24.550Z,5.75
2018-05-06T01:22:19.555Z,5.6
2018-05-06T01:28:14.582Z,5.63
2018-05-06T01:34:09.580Z,5.65
2018-05-06T01:40:04.585Z,5.53
2018-05-06T01:45:59.592Z,6.48
2018-05-06T01:51:54.568Z,6.06
2018-05-06T01:57:49.582Z,5.56
2018-05-06T02:03:44.579Z,6.1
2018-05-06T02:09:39.618Z,7.03
2018-05-06T02:15:34.579Z,6.1
2018-05-06T02:21:29.617Z,6.11
2018-05-06T02:27:24.617Z,5.92
2018-05-06T02:33:19.613Z,6.13
2018-05-06T02:39:14.611Z,6.05
2018-05-06T02:45:09.642Z,6.59
2018-05-06T02:51:04.613Z,5.59
2018-05-06T02:56:59.608Z,5.58
2018-05-06T03:02:54.669Z,5.77
2018-05-06T03:08:49.639Z,6.43
2018-05-06T03:14:44.637Z,7.28
2018-05-06T03:20:39.667Z,7.06
2018-05-06T03:26:34.649Z,7.26
2018-05-06T03:32:29.667Z,7.42
2018-05-06T03:38:24.656Z,7.42
2018-05-06T03:44:19.647Z,6.94
2018-05-06T03:50:14.674Z,6.78
2018-05-06T03:56:09.639Z,6.39
2018-05-06T04:02:04.644Z,6.28
2018-05-06T04:07:59.636Z,6.73
2018-05-06T04:13:54.649Z,6.71
2018-05-06T04:19:49.670Z,6.56
2018-05-06T04:25:44.674Z,7
2018-05-06T04:31:39.661Z,6.93
2018-05-06T04:37:34.697Z,7.16
2018-05-06T04:43:29.675Z,6.76
2018-05-06T04:49:24.655Z,6.59
2018-05-06T04:55:19.687Z,7.19
2018-05-06T05:01:14.691Z,7.03
2018-05-06T05:07:09.749Z,6.8
2018-05-06T05:13:04.708Z,7.37
2018-05-06T05:18:59.718Z,6.83
2018-05-06T05:24:54.721Z,7.08
2018-05-06T05:30:49.677Z,7.6
2018-05-06T05:36:44.733Z,7.14
2018-05-06T05:42:39.696Z,7.3
2018-05-06T05:48:34.737Z,8.37
2018-05-06T05:54:29.717Z,7.53
2018-05-06T06:00:24.726Z,7.71
2018-05-06T06:06:19.753Z,7.81
2018-05-06T06:12:14.740Z,7.41
2018-05-06T06:18:09.732Z,8.47
2018-05-06T06:24:04.715Z,8.84
2018-05-06T06:29:59.706Z,9.36
2018-05-06T06:35:54.733Z,9.34
2018-05-06T06:41:49.740Z,9.7
2018-05-06T06:47:44.746Z,8.22
2018-05-06T06:53:39.747Z,10.81
2018-05-06T06:59:34.765Z,12.72
2018-05-06T07:05:29.771Z,15.16
2018-05-06T07:11:24.803Z,12.42
2018-05-06T07:17:19.743Z,12.42
2018-05-06T07:23:14.831Z,14.9
2018-05-06T07:29:09.759Z,14.47
2018-05-06T07:35:04.745Z,13.63
2018-05-06T07:40:59.750Z,13.29
2018-05-06T07:46:54.787Z,16.35
2018-05-06T07:52:49.814Z,14.4
2018-05-06T07:58:44.841Z,12.66
2018-05-06T08:04:39.757Z,14.1
2018-05-06T08:10:34.777Z,13.39
2018-05-06T08:16:29.930Z,11.81
2018-05-06T08:22:24.797Z,11.14
2018-05-06T08:28:19.812Z,13.59
2018-05-06T08:34:14.791Z,11.64
2018-05-06T08:40:09.827Z,12.61
2018-05-06T08:46:04.783Z,11.51
2018-05-06T08:51:59.824Z,12.3
2018-05-06T08:57:54.848Z,9.76
2018-05-06T09:03:49.812Z,12.14
2018-05-06T09:09:44.806Z,11.46
2018-05-06T09:15:39.797Z,13.05
2018-05-06T09:21:34.827Z,10.8
2018-05-06T09:27:29.847Z,10.73
2018-05-06T09:33:24.836Z,11.85
2018-05-06T09:39:19.828Z,10.78
2018-05-06T09:45:14.839Z,11.05
2018-05-06T09:51:09.877Z,25.03
2018-05-06T09:57:04.844Z,13.35
2018-05-06T10:02:59.850Z,9.95
2018-05-06T10:08:54.879Z,10.87
2018-05-06T10:14:49.891Z,10.94
2018-05-06T10:20:44.844Z,8.33
2018-05-06T10:26:39.869Z,7.57
2018-05-06T10:32:34.853Z,8.62
2018-05-06T10:38:29.881Z,8.8
2018-05-06T10:44:24.970Z,7.81
2018-05-06T10:50:19.925Z,8.21
2018-05-06T10:56:14.889Z,8.62
2018-05-06T11:02:09.874Z,9.19
2018-05-06T11:08:04.910Z,7.44
2018-05-06T11:13:59.905Z,8.53
2018-05-06T11:19:54.914Z,8.9
2018-05-06T11:25:49.909Z,8.69
2018-05-06T11:31:44.902Z,9.53
2018-05-06T11:37:39.882Z,7.85
2018-05-06T11:43:34.922Z,8.53
2018-05-06T11:49:29.904Z,8.82
2018-05-06T11:55:24.888Z,7.6
2018-05-06T12:01:19.931Z,7.69
2018-05-06T12:07:14.912Z,7.93
2018-05-06T12:13:09.921Z,7.52
2018-05-06T12:19:04.963Z,9.39
2018-05-06T12:24:59.938Z,9.08
2018-05-06T12:30:54.922Z,8.76
2018-05-06T12:36:49.916Z,8.73
2018-05-06T12:42:44.955Z,7.86
2018-05-06T12:48:39.934Z,8.55
2018-05-06T12:54:34.965Z,8.12
2018-05-06T13:00:29.956Z,7.87
2018-05-06T13:06:24.951Z,7.8
2018-05-06T13:12:19.929Z,8.07
2018-05-06T13:18:14.972Z,8.05
2018-05-06T13:24:10.046Z,8.12
2018-05-06T13:30:05.072Z,8.22
2018-05-06T13:35:59.980Z,7.99
2018-05-06T13:41:54.933Z,8.25
2018-05-06T13:47:49.980Z,7.98
2018-05-06T13:53:45.006Z,7.36
2018-05-06T13:59:39.993Z,9.98
2018-05-06T14:05:35.015Z,9.95
2018-05-06T14:11:29.991Z,12.39
2018-05-06T14:17:25.042Z,9.09
2018-05-06T14:23:19.988Z,9.97
2018-05-06T14:29:15.069Z,9.2
2018-05-06T14:35:09.980Z,9.34
2018-05-06T14:41:05.000Z,9.27
2018-05-06T14:46:59.986Z,9.17
2018-05-06T14:52:54.985Z,8.89
2018-05-06T14:58:49.994Z,9.13
2018-05-06T15:04:45.015Z,9.73
2018-05-06T15:10:40.038Z,8.91
2018-05-06T15:16:35.010Z,9.17
2018-05-06T15:22:30.072Z,8.62
2018-05-06T15:28:25.018Z,8.73
2018-05-06T15:34:20.034Z,9.43
2018-05-06T15:40:15.027Z,9.14
2018-05-06T15:46:10.064Z,9.17
2018-05-06T15:52:05.062Z,9.08
2018-05-06T15:58:00.059Z,8.9
2018-05-06T16:03:55.031Z,9.22
2018-05-06T16:09:50.142Z,8.63
2018-05-06T16:15:45.050Z,8.18
2018-05-06T16:21:40.053Z,8.46
2018-05-06T16:27:35.089Z,9.48
2018-05-06T16:33:30.056Z,10.51
2018-05-06T16:39:25.049Z,9.61
2018-05-06T16:45:20.042Z,9.93
2018-05-06T16:51:15.084Z,11.15
2018-05-06T16:57:10.045Z,12.98
2018-05-06T17:03:05.113Z,13.15
2018-05-06T17:09:00.063Z,11.47
2018-05-06T17:14:55.154Z,10.96
2018-05-06T17:20:50.140Z,11.68
2018-05-06T17:26:45.105Z,12.23
2018-05-06T17:32:40.093Z,12.08
2018-05-06T17:38:35.090Z,13.26
2018-05-06T17:44:30.109Z,14.84
2018-05-06T17:50:25.317Z,13.64
2018-05-06T17:56:20.132Z,13.53
2018-05-06T18:02:15.128Z,13.55
2018-05-06T18:08:10.124Z,13.72
2018-05-06T18:14:05.113Z,12.9
2018-05-06T18:20:00.141Z,13.04
2018-05-06T18:25:55.172Z,13.77
2018-05-06T18:31:50.188Z,13.79
2018-05-06T18:37:45.126Z,13.54
2018-05-06T18:43:40.145Z,13.64
2018-05-06T18:49:35.167Z,13.83
2018-05-06T18:55:30.137Z,13.76
2018-05-06T19:01:25.173Z,13.46
2018-05-06T19:07:20.139Z,12.79
2018-05-06T19:13:15.186Z,12.1
2018-05-06T19:19:10.130Z,11.81
2018-05-06T19:25:05.192Z,11.43
2018-05-06T19:31:00.148Z,12.56
2018-05-06T19:36:55.187Z,12.25
2018-05-06T19:42:50.148Z,12.05
2018-05-06T19:48:45.185Z,13.18
2018-05-06T19:54:40.200Z,12.66
2018-05-06T20:00:35.204Z,11.2
2018-05-06T20:06:30.184Z,11.06
2018-05-06T20:12:25.161Z,11.3
2018-05-06T20:18:20.197Z,11.22
2018-05-06T20:24:15.225Z,11.65
2018-05-06T20:30:10.279Z,11.02
2018-05-06T20:36:05.177Z,10.61
2018-05-06T20:42:00.186Z,10.43
2018-05-06T20:47:55.189Z,10.84
2018-05-06T20:53:50.217Z,11.54
2018-05-06T20:59:45.198Z,11.44
2018-05-06T21:05:40.222Z,10.56
2018-05-06T21:11:35.206Z,10.98
2018-05-06T21:17:30.207Z,11.65
2018-05-06T21:23:25.208Z,11.13
2018-05-06T21:29:20.227Z,11.13
2018-05-06T21:35:15.202Z,10.67
2018-05-06T21:41:10.199Z,10.52
2018-05-06T21:47:05.243Z,10.81
2018-05-06T21:53:00.283Z,10
2018-05-06T21:58:55.287Z,11.19
2018-05-06T22:04:50.217Z,10.61
2018-05-06T22:10:45.277Z,10.15
2018-05-06T22:16:40.295Z,10.48
2018-05-06T22:22:35.361Z,10.29
2018-05-06T22:28:30.275Z,10
2018-05-06T22:34:25.283Z,9.49
2018-05-06T22:40:20.307Z,10.29
2018-05-06T22:46:15.273Z,9.02
2018-05-06T22:52:10.323Z,9.94
2018-05-06T22:58:05.246Z,10
2018-05-06T23:04:00.272Z,9.65
2018-05-06T23:09:55.328Z,9.85
2018-05-06T23:15:50.337Z,9.69
2018-05-06T23:21:45.313Z,9.87
2018-05-06T23:27:40.269Z,10.87
2018-05-06T23:33:35.312Z,9.97
2018-05-06T23:39:30.333Z,10.83
2018-05-06T23:45:25.306Z,10.81
2018-05-06T23:51:20.331Z,10.91
2018-05-06T23:57:15.324Z,11.1
